sensor_id;sensor_type;location;lat;lon;timestamp;pressure;altitude;pressure_sealevel;temperature;humidity
9855;BME280;4966;48.112;9.282;2022-12-20T00:00:50;95333.00;;;-0.38;86.20
9855;BME280;4966;48.112;9.282;2022-12-20T00:03:15;95332.78;;;-0.37;86.35
9855;BME280;4966;48.112;9.282;2022-12-20T00:05:42;95339.63;;;-0.46;86.45
9855;BME280;4966;48.112;9.282;2022-12-20T00:08:09;95343.66;;;-0.71;88.27
9855;BME280;4966;48.112;9.282;2022-12-20T00:10:39;95337.66;;;-0.56;87.90
9855;BME280;4966;48.112;9.282;2022-12-20T00:13:05;95330.94;;;-0.31;87.01
9855;BME280;4966;48.112;9.282;2022-12-20T00:15:30;95327.88;;;-0.18;86.10
9855;BME280;4966;48.112;9.282;2022-12-20T00:17:56;95324.41;;;-0.18;85.88
9855;BME280;4966;48.112;9.282;2022-12-20T00:20:22;95324.28;;;-0.02;85.17
9855;BME280;4966;48.112;9.282;2022-12-20T00:22:47;95320.38;;;-0.21;85.19
9855;BME280;4966;48.112;9.282;2022-12-20T00:25:12;95330.75;;;-0.25;85.51
9855;BME280;4966;48.112;9.282;2022-12-20T00:27:38;95341.41;;;-0.30;86.09
9855;BME280;4966;48.112;9.282;2022-12-20T00:30:04;95344.88;;;-0.29;86.15
9855;BME280;4966;48.112;9.282;2022-12-20T00:32:30;95334.88;;;-0.12;85.45
9855;BME280;4966;48.112;9.282;2022-12-20T00:34:56;95324.03;;;0.00;84.94
9855;BME280;4966;48.112;9.282;2022-12-20T00:37:21;95323.19;;;-0.33;85.75
9855;BME280;4966;48.112;9.282;2022-12-20T00:39:46;95329.22;;;-0.48;86.49
9855;BME280;4966;48.112;9.282;2022-12-20T00:42:12;95321.88;;;-0.30;85.90
9855;BME280;4966;48.112;9.282;2022-12-20T00:44:37;95313.22;;;-0.10;84.74
9855;BME280;4966;48.112;9.282;2022-12-20T00:47:02;95320.75;;;-0.34;85.30
9855;BME280;4966;48.112;9.282;2022-12-20T00:49:28;95316.28;;;-0.29;85.00
9855;BME280;4966;48.112;9.282;2022-12-20T00:51:53;95313.97;;;-0.47;85.45
9855;BME280;4966;48.112;9.282;2022-12-20T00:54:18;95317.66;;;-0.26;85.05
9855;BME280;4966;48.112;9.282;2022-12-20T00:56:44;95314.38;;;-0.33;84.79
9855;BME280;4966;48.112;9.282;2022-12-20T00:59:09;95311.75;;;-0.55;85.17
9855;BME280;4966;48.112;9.282;2022-12-20T01:01:35;95316.13;;;-0.71;85.96
9855;BME280;4966;48.112;9.282;2022-12-20T01:04:01;95326.50;;;-0.75;86.19
9855;BME280;4966;48.112;9.282;2022-12-20T01:06:27;95329.88;;;-0.84;86.57
9855;BME280;4966;48.112;9.282;2022-12-20T01:08:53;95324.56;;;-0.57;86.54
9855;BME280;4966;48.112;9.282;2022-12-20T01:11:27;95330.09;;;-0.64;86.17
9855;BME280;4966;48.112;9.282;2022-12-20T01:13:55;95324.16;;;-0.71;86.33
9855;BME280;4966;48.112;9.282;2022-12-20T01:16:30;95330.25;;;-0.76;86.35
9855;BME280;4966;48.112;9.282;2022-12-20T01:18:56;95326.56;;;-0.70;85.91
9855;BME280;4966;48.112;9.282;2022-12-20T01:21:23;95334.78;;;-0.98;86.75
9855;BME280;4966;48.112;9.282;2022-12-20T01:23:48;95330.59;;;-0.67;85.87
9855;BME280;4966;48.112;9.282;2022-12-20T01:26:16;95316.56;;;-0.57;85.39
9855;BME280;4966;48.112;9.282;2022-12-20T01:28:43;95327.75;;;-0.82;86.09
9855;BME280;4966;48.112;9.282;2022-12-20T01:31:15;95340.75;;;-0.91;87.58
9855;BME280;4966;48.112;9.282;2022-12-20T01:33:42;95343.00;;;-0.83;86.81
9855;BME280;4966;48.112;9.282;2022-12-20T01:36:11;95330.47;;;-0.77;86.72
9855;BME280;4966;48.112;9.282;2022-12-20T01:38:37;95340.03;;;-0.59;85.62
9855;BME280;4966;48.112;9.282;2022-12-20T01:41:03;95346.56;;;-0.72;85.63
9855;BME280;4966;48.112;9.282;2022-12-20T01:46:12;95347.81;;;-0.80;85.93
9855;BME280;4966;48.112;9.282;2022-12-20T01:48:38;95351.28;;;-0.79;86.15
9855;BME280;4966;48.112;9.282;2022-12-20T01:51:04;95335.59;;;-0.76;86.28
9855;BME280;4966;48.112;9.282;2022-12-20T01:53:30;95334.25;;;-0.51;84.30
9855;BME280;4966;48.112;9.282;2022-12-20T01:55:58;95329.97;;;-0.74;85.09
9855;BME280;4966;48.112;9.282;2022-12-20T01:58:27;95334.16;;;-0.83;86.30
9855;BME280;4966;48.112;9.282;2022-12-20T02:00:52;95329.22;;;-0.70;86.39
9855;BME280;4966;48.112;9.282;2022-12-20T02:03:18;95321.81;;;-0.62;85.99
9855;BME280;4966;48.112;9.282;2022-12-20T02:05:44;95323.53;;;-0.24;84.63
9855;BME280;4966;48.112;9.282;2022-12-20T02:08:13;95321.94;;;-0.52;85.70
9855;BME280;4966;48.112;9.282;2022-12-20T02:13:21;95315.13;;;-0.38;85.67
9855;BME280;4966;48.112;9.282;2022-12-20T02:15:57;95310.22;;;-0.46;85.79
9855;BME280;4966;48.112;9.282;2022-12-20T02:18:28;95293.44;;;-0.41;85.92
9855;BME280;4966;48.112;9.282;2022-12-20T02:21:07;95297.59;;;-0.29;85.70
9855;BME280;4966;48.112;9.282;2022-12-20T02:32:16;95270.91;;;-0.18;85.07
9855;BME280;4966;48.112;9.282;2022-12-20T02:34:44;95269.13;;;-0.40;85.53
9855;BME280;4966;48.112;9.282;2022-12-20T02:37:10;95268.97;;;-0.28;85.72
9855;BME280;4966;48.112;9.282;2022-12-20T02:39:39;95275.16;;;-0.23;85.65
9855;BME280;4966;48.112;9.282;2022-12-20T02:42:07;95284.34;;;-0.08;85.41
9855;BME280;4966;48.112;9.282;2022-12-20T02:44:37;95279.22;;;-0.15;84.57
9855;BME280;4966;48.112;9.282;2022-12-20T02:47:29;95278.88;;;-0.29;85.04
9855;BME280;4966;48.112;9.282;2022-12-20T02:49:57;95278.47;;;-0.10;84.26
9855;BME280;4966;48.112;9.282;2022-12-20T02:52:25;95288.72;;;0.03;83.38
9855;BME280;4966;48.112;9.282;2022-12-20T02:54:55;95294.72;;;-0.17;84.10
9855;BME280;4966;48.112;9.282;2022-12-20T03:02:23;95282.22;;;-0.11;84.91
9855;BME280;4966;48.112;9.282;2022-12-20T03:04:50;95288.34;;;-0.11;84.63
9855;BME280;4966;48.112;9.282;2022-12-20T03:07:16;95286.41;;;-0.20;85.19
9855;BME280;4966;48.112;9.282;2022-12-20T03:09:43;95287.56;;;-0.11;85.15
9855;BME280;4966;48.112;9.282;2022-12-20T03:12:10;95283.44;;;0.13;84.64
9855;BME280;4966;48.112;9.282;2022-12-20T03:14:39;95290.03;;;-0.05;85.08
9855;BME280;4966;48.112;9.282;2022-12-20T03:17:06;95277.69;;;-0.06;85.14
9855;BME280;4966;48.112;9.282;2022-12-20T03:19:32;95277.44;;;-0.04;85.25
9855;BME280;4966;48.112;9.282;2022-12-20T03:21:57;95273.16;;;-0.05;85.57
9855;BME280;4966;48.112;9.282;2022-12-20T03:24:23;95267.75;;;-0.10;86.07
9855;BME280;4966;48.112;9.282;2022-12-20T03:26:48;95262.44;;;-0.05;85.70
9855;BME280;4966;48.112;9.282;2022-12-20T03:29:14;95257.63;;;-0.08;86.06
9855;BME280;4966;48.112;9.282;2022-12-20T03:31:39;95255.78;;;-0.03;86.29
9855;BME280;4966;48.112;9.282;2022-12-20T03:34:05;95243.53;;;0.07;85.75
9855;BME280;4966;48.112;9.282;2022-12-20T03:36:31;95240.22;;;0.32;84.22
9855;BME280;4966;48.112;9.282;2022-12-20T03:38:56;95251.13;;;0.20;84.56
9855;BME280;4966;48.112;9.282;2022-12-20T03:41:22;95250.25;;;0.09;85.18
9855;BME280;4966;48.112;9.282;2022-12-20T03:43:48;95247.00;;;0.07;85.33
9855;BME280;4966;48.112;9.282;2022-12-20T03:46:14;95258.28;;;0.09;85.46
9855;BME280;4966;48.112;9.282;2022-12-20T03:48:39;95260.34;;;0.02;85.78
9855;BME280;4966;48.112;9.282;2022-12-20T03:51:05;95245.25;;;0.23;84.91
9855;BME280;4966;48.112;9.282;2022-12-20T03:53:30;95246.63;;;0.31;84.99
9855;BME280;4966;48.112;9.282;2022-12-20T03:55:56;95240.06;;;0.06;85.16
9855;BME280;4966;48.112;9.282;2022-12-20T03:58:21;95235.66;;;-0.10;85.89
9855;BME280;4966;48.112;9.282;2022-12-20T04:00:46;95242.78;;;0.11;85.98
9855;BME280;4966;48.112;9.282;2022-12-20T04:03:12;95242.22;;;0.09;85.89
9855;BME280;4966;48.112;9.282;2022-12-20T04:05:37;95235.50;;;0.07;86.14
9855;BME280;4966;48.112;9.282;2022-12-20T04:08:03;95251.69;;;0.22;85.86
9855;BME280;4966;48.112;9.282;2022-12-20T04:10:28;95242.13;;;0.36;85.18
9855;BME280;4966;48.112;9.282;2022-12-20T04:12:53;95229.53;;;0.32;85.00
9855;BME280;4966;48.112;9.282;2022-12-20T04:15:19;95236.19;;;0.24;85.39
9855;BME280;4966;48.112;9.282;2022-12-20T04:17:44;95231.44;;;0.36;84.87
9855;BME280;4966;48.112;9.282;2022-12-20T04:20:13;95229.81;;;0.40;83.96
9855;BME280;4966;48.112;9.282;2022-12-20T04:22:48;95229.59;;;0.47;83.66
9855;BME280;4966;48.112;9.282;2022-12-20T04:25:16;95222.66;;;0.51;83.40
9855;BME280;4966;48.112;9.282;2022-12-20T04:27:42;95227.63;;;0.27;84.33
9855;BME280;4966;48.112;9.282;2022-12-20T04:30:08;95225.75;;;0.28;84.57
9855;BME280;4966;48.112;9.282;2022-12-20T04:32:34;95218.28;;;0.30;84.68
9855;BME280;4966;48.112;9.282;2022-12-20T04:35:00;95222.00;;;0.29;84.93
9855;BME280;4966;48.112;9.282;2022-12-20T04:37:25;95223.88;;;0.28;85.35
9855;BME280;4966;48.112;9.282;2022-12-20T04:39:51;95224.66;;;0.29;85.52
9855;BME280;4966;48.112;9.282;2022-12-20T04:42:16;95219.22;;;0.66;84.34
9855;BME280;4966;48.112;9.282;2022-12-20T04:44:41;95210.09;;;0.57;84.62
9855;BME280;4966;48.112;9.282;2022-12-20T04:47:07;95222.94;;;0.55;84.83
9855;BME280;4966;48.112;9.282;2022-12-20T04:49:34;95216.75;;;0.49;85.19
9855;BME280;4966;48.112;9.282;2022-12-20T04:51:59;95212.94;;;0.35;85.79
9855;BME280;4966;48.112;9.282;2022-12-20T04:54:44;95218.66;;;0.59;85.15
9855;BME280;4966;48.112;9.282;2022-12-20T04:57:10;95214.41;;;0.63;84.79
9855;BME280;4966;48.112;9.282;2022-12-20T04:59:36;95210.84;;;0.47;85.50
9855;BME280;4966;48.112;9.282;2022-12-20T05:02:01;95205.81;;;0.56;85.67
9855;BME280;4966;48.112;9.282;2022-12-20T05:04:26;95206.09;;;0.64;84.93
9855;BME280;4966;48.112;9.282;2022-12-20T05:06:52;95197.50;;;0.57;84.90
9855;BME280;4966;48.112;9.282;2022-12-20T05:09:17;95204.72;;;0.52;85.44
9855;BME280;4966;48.112;9.282;2022-12-20T05:11:43;95200.44;;;0.51;85.43
9855;BME280;4966;48.112;9.282;2022-12-20T05:14:08;95195.38;;;0.59;85.47
9855;BME280;4966;48.112;9.282;2022-12-20T05:16:34;95194.34;;;0.66;84.97
9855;BME280;4966;48.112;9.282;2022-12-20T05:18:59;95198.88;;;0.60;84.96
9855;BME280;4966;48.112;9.282;2022-12-20T05:21:26;95192.66;;;0.49;85.33
9855;BME280;4966;48.112;9.282;2022-12-20T05:24:10;95195.00;;;0.35;86.09
9855;BME280;4966;48.112;9.282;2022-12-20T05:26:54;95199.28;;;0.31;86.74
9855;BME280;4966;48.112;9.282;2022-12-20T05:29:20;95186.19;;;0.35;86.82
9855;BME280;4966;48.112;9.282;2022-12-20T05:31:45;95186.84;;;0.62;85.91
9855;BME280;4966;48.112;9.282;2022-12-20T05:34:11;95186.22;;;0.45;86.19
9855;BME280;4966;48.112;9.282;2022-12-20T05:36:36;95177.69;;;0.53;86.14
9855;BME280;4966;48.112;9.282;2022-12-20T05:39:02;95179.28;;;0.54;85.97
9855;BME280;4966;48.112;9.282;2022-12-20T05:41:27;95177.47;;;0.65;85.70
9855;BME280;4966;48.112;9.282;2022-12-20T05:43:52;95174.50;;;0.61;85.22
9855;BME280;4966;48.112;9.282;2022-12-20T05:46:18;95176.06;;;0.52;85.60
9855;BME280;4966;48.112;9.282;2022-12-20T05:48:43;95170.13;;;0.40;85.65
9855;BME280;4966;48.112;9.282;2022-12-20T05:51:08;95164.34;;;0.63;85.16
9855;BME280;4966;48.112;9.282;2022-12-20T05:53:34;95162.13;;;0.45;85.63
9855;BME280;4966;48.112;9.282;2022-12-20T05:56:00;95158.72;;;0.60;84.78
9855;BME280;4966;48.112;9.282;2022-12-20T05:58:26;95178.72;;;0.47;85.06
9855;BME280;4966;48.112;9.282;2022-12-20T06:00:51;95170.38;;;0.33;85.51
9855;BME280;4966;48.112;9.282;2022-12-20T06:03:17;95158.00;;;0.17;86.17
9855;BME280;4966;48.112;9.282;2022-12-20T06:05:42;95174.00;;;0.12;86.32
9855;BME280;4966;48.112;9.282;2022-12-20T06:08:08;95162.09;;;-0.18;87.73
9855;BME280;4966;48.112;9.282;2022-12-20T06:10:34;95156.78;;;-0.08;87.17
9855;BME280;4966;48.112;9.282;2022-12-20T06:13:01;95167.81;;;0.01;86.75
9855;BME280;4966;48.112;9.282;2022-12-20T06:15:27;95155.44;;;-0.10;86.98
9855;BME280;4966;48.112;9.282;2022-12-20T06:17:52;95165.22;;;0.16;86.12
9855;BME280;4966;48.112;9.282;2022-12-20T06:20:17;95164.19;;;0.23;85.83
9855;BME280;4966;48.112;9.282;2022-12-20T06:22:43;95155.53;;;0.05;86.18
9855;BME280;4966;48.112;9.282;2022-12-20T06:25:09;95159.22;;;-0.06;86.48
9855;BME280;4966;48.112;9.282;2022-12-20T06:27:35;95152.22;;;-0.12;86.70
9855;BME280;4966;48.112;9.282;2022-12-20T06:30:05;95167.78;;;-0.04;87.10
9855;BME280;4966;48.112;9.282;2022-12-20T06:32:32;95154.13;;;-0.08;87.19
9855;BME280;4966;48.112;9.282;2022-12-20T06:34:58;95156.22;;;-0.15;86.87
9855;BME280;4966;48.112;9.282;2022-12-20T06:37:23;95150.28;;;-0.22;87.96
9855;BME280;4966;48.112;9.282;2022-12-20T06:39:48;95149.13;;;0.11;86.79
9855;BME280;4966;48.112;9.282;2022-12-20T06:42:14;95138.59;;;-0.11;87.42
9855;BME280;4966;48.112;9.282;2022-12-20T06:44:39;95144.47;;;-0.14;87.14
9855;BME280;4966;48.112;9.282;2022-12-20T06:47:04;95138.53;;;-0.26;87.47
9855;BME280;4966;48.112;9.282;2022-12-20T06:49:30;95146.84;;;-0.17;87.89
9855;BME280;4966;48.112;9.282;2022-12-20T06:51:55;95145.84;;;-0.06;87.66
9855;BME280;4966;48.112;9.282;2022-12-20T06:54:21;95149.06;;;-0.04;87.61
9855;BME280;4966;48.112;9.282;2022-12-20T06:56:46;95149.84;;;-0.09;87.69
9855;BME280;4966;48.112;9.282;2022-12-20T06:59:12;95146.09;;;-0.08;87.54
9855;BME280;4966;48.112;9.282;2022-12-20T07:01:37;95143.72;;;-0.04;87.73
9855;BME280;4966;48.112;9.282;2022-12-20T07:04:03;95137.91;;;0.14;86.81
9855;BME280;4966;48.112;9.282;2022-12-20T07:06:28;95135.03;;;0.26;86.04
9855;BME280;4966;48.112;9.282;2022-12-20T07:08:54;95132.56;;;0.14;86.37
9855;BME280;4966;48.112;9.282;2022-12-20T07:11:19;95133.06;;;0.06;86.71
9855;BME280;4966;48.112;9.282;2022-12-20T07:13:44;95137.56;;;-0.05;87.14
9855;BME280;4966;48.112;9.282;2022-12-20T07:16:10;95137.91;;;0.14;86.90
9855;BME280;4966;48.112;9.282;2022-12-20T07:18:35;95141.97;;;0.22;86.96
9855;BME280;4966;48.112;9.282;2022-12-20T07:21:03;95143.59;;;0.33;86.69
9855;BME280;4966;48.112;9.282;2022-12-20T07:23:29;95145.50;;;0.38;86.53
9855;BME280;4966;48.112;9.282;2022-12-20T07:25:55;95143.97;;;0.57;85.37
9855;BME280;4966;48.112;9.282;2022-12-20T07:28:22;95148.25;;;0.53;85.22
9855;BME280;4966;48.112;9.282;2022-12-20T07:30:48;95151.94;;;0.42;85.87
9855;BME280;4966;48.112;9.282;2022-12-20T07:33:13;95141.22;;;0.37;86.31
9855;BME280;4966;48.112;9.282;2022-12-20T07:35:39;95140.72;;;0.45;86.22
9855;BME280;4966;48.112;9.282;2022-12-20T07:38:04;95142.59;;;0.45;86.44
9855;BME280;4966;48.112;9.282;2022-12-20T07:40:30;95134.56;;;0.50;86.54
9855;BME280;4966;48.112;9.282;2022-12-20T07:42:55;95134.78;;;0.33;87.19
9855;BME280;4966;48.112;9.282;2022-12-20T07:45:20;95142.34;;;0.51;87.26
9855;BME280;4966;48.112;9.282;2022-12-20T07:47:46;95142.38;;;0.67;86.86
9855;BME280;4966;48.112;9.282;2022-12-20T07:50:11;95134.66;;;0.85;86.02
9855;BME280;4966;48.112;9.282;2022-12-20T07:52:38;95136.84;;;0.99;85.57
9855;BME280;4966;48.112;9.282;2022-12-20T07:55:06;95141.09;;;0.95;86.25
9855;BME280;4966;48.112;9.282;2022-12-20T07:57:46;95138.13;;;0.81;86.31
9855;BME280;4966;48.112;9.282;2022-12-20T08:00:14;95130.94;;;0.97;86.40
9855;BME280;4966;48.112;9.282;2022-12-20T08:02:48;95124.53;;;1.13;86.13
9855;BME280;4966;48.112;9.282;2022-12-20T08:05:15;95131.22;;;1.26;86.20
9855;BME280;4966;48.112;9.282;2022-12-20T08:07:43;95127.50;;;1.27;86.10
9855;BME280;4966;48.112;9.282;2022-12-20T08:10:12;95134.44;;;1.38;84.67
9855;BME280;4966;48.112;9.282;2022-12-20T08:12:39;95145.16;;;1.28;84.95
9855;BME280;4966;48.112;9.282;2022-12-20T08:15:05;95134.97;;;1.40;84.94
9855;BME280;4966;48.112;9.282;2022-12-20T08:17:31;95155.88;;;1.38;85.28
9855;BME280;4966;48.112;9.282;2022-12-20T08:19:56;95141.94;;;1.52;85.21
9855;BME280;4966;48.112;9.282;2022-12-20T08:22:22;95149.97;;;1.62;84.53
9855;BME280;4966;48.112;9.282;2022-12-20T08:24:47;95143.81;;;1.66;83.74
9855;BME280;4966;48.112;9.282;2022-12-20T08:27:12;95143.25;;;1.69;83.74
9855;BME280;4966;48.112;9.282;2022-12-20T08:29:39;95140.84;;;1.73;83.99
9855;BME280;4966;48.112;9.282;2022-12-20T08:32:05;95131.19;;;1.82;83.14
9855;BME280;4966;48.112;9.282;2022-12-20T08:34:30;95130.13;;;1.78;83.45
9855;BME280;4966;48.112;9.282;2022-12-20T08:36:55;95133.56;;;1.84;83.88
9855;BME280;4966;48.112;9.282;2022-12-20T08:39:21;95126.31;;;1.84;83.97
9855;BME280;4966;48.112;9.282;2022-12-20T08:41:47;95123.09;;;1.92;83.18
9855;BME280;4966;48.112;9.282;2022-12-20T08:44:12;95125.53;;;1.94;83.58
9855;BME280;4966;48.112;9.282;2022-12-20T08:46:37;95121.72;;;2.05;82.83
9855;BME280;4966;48.112;9.282;2022-12-20T08:49:04;95113.06;;;2.24;82.27
9855;BME280;4966;48.112;9.282;2022-12-20T08:51:29;95123.03;;;2.13;82.87
9855;BME280;4966;48.112;9.282;2022-12-20T08:53:54;95109.28;;;2.35;81.70
9855;BME280;4966;48.112;9.282;2022-12-20T08:56:20;95110.63;;;2.27;81.60
9855;BME280;4966;48.112;9.282;2022-12-20T08:58:46;95108.81;;;2.23;82.81
9855;BME280;4966;48.112;9.282;2022-12-20T09:01:16;95101.50;;;2.33;82.55
9855;BME280;4966;48.112;9.282;2022-12-20T09:03:42;95112.50;;;2.32;82.55
9855;BME280;4966;48.112;9.282;2022-12-20T09:06:11;95113.31;;;2.38;83.30
9855;BME280;4966;48.112;9.282;2022-12-20T09:08:37;95102.78;;;2.46;83.33
9855;BME280;4966;48.112;9.282;2022-12-20T09:11:09;95116.97;;;2.57;82.82
9855;BME280;4966;48.112;9.282;2022-12-20T09:13:40;95109.88;;;2.76;82.41
9855;BME280;4966;48.112;9.282;2022-12-20T09:16:07;95108.00;;;2.72;82.44
9855;BME280;4966;48.112;9.282;2022-12-20T09:18:33;95106.66;;;2.74;82.12
9855;BME280;4966;48.112;9.282;2022-12-20T09:21:00;95104.50;;;2.76;82.92
9855;BME280;4966;48.112;9.282;2022-12-20T09:23:26;95108.28;;;2.75;82.63
9855;BME280;4966;48.112;9.282;2022-12-20T09:25:52;95108.78;;;2.77;82.94
9855;BME280;4966;48.112;9.282;2022-12-20T09:28:17;95116.22;;;2.91;82.40
9855;BME280;4966;48.112;9.282;2022-12-20T09:30:42;95120.50;;;2.92;82.77
9855;BME280;4966;48.112;9.282;2022-12-20T09:33:08;95112.38;;;3.07;82.39
9855;BME280;4966;48.112;9.282;2022-12-20T09:35:33;95109.88;;;3.16;81.92
9855;BME280;4966;48.112;9.282;2022-12-20T09:37:59;95114.66;;;3.24;81.31
9855;BME280;4966;48.112;9.282;2022-12-20T09:40:29;95119.38;;;3.37;81.10
9855;BME280;4966;48.112;9.282;2022-12-20T09:42:57;95112.69;;;3.35;81.42
9855;BME280;4966;48.112;9.282;2022-12-20T09:45:31;95109.41;;;3.43;82.03
9855;BME280;4966;48.112;9.282;2022-12-20T09:47:59;95108.22;;;3.54;81.16
9855;BME280;4966;48.112;9.282;2022-12-20T09:50:46;95106.78;;;3.67;80.49
9855;BME280;4966;48.112;9.282;2022-12-20T09:53:32;95098.97;;;3.66;80.71
9855;BME280;4966;48.112;9.282;2022-12-20T09:56:15;95096.81;;;3.68;81.07
9855;BME280;4966;48.112;9.282;2022-12-20T09:58:56;95096.16;;;4.05;78.88
9855;BME280;4966;48.112;9.282;2022-12-20T10:01:24;95094.94;;;3.92;79.72
9855;BME280;4966;48.112;9.282;2022-12-20T10:03:51;95091.69;;;3.95;80.08
9855;BME280;4966;48.112;9.282;2022-12-20T10:09:03;95075.09;;;4.12;78.84
9855;BME280;4966;48.112;9.282;2022-12-20T10:11:48;95083.09;;;4.17;78.99
9855;BME280;4966;48.112;9.282;2022-12-20T10:17:45;95084.81;;;4.32;79.42
9855;BME280;4966;48.112;9.282;2022-12-20T10:23:24;95069.22;;;4.29;79.40
9855;BME280;4966;48.112;9.282;2022-12-20T10:25:54;95065.78;;;4.23;78.79
9855;BME280;4966;48.112;9.282;2022-12-20T10:28:25;95063.91;;;4.24;78.86
9855;BME280;4966;48.112;9.282;2022-12-20T10:30:51;95051.38;;;4.33;78.33
9855;BME280;4966;48.112;9.282;2022-12-20T10:33:20;95048.19;;;4.31;79.39
9855;BME280;4966;48.112;9.282;2022-12-20T10:35:47;95041.63;;;4.37;79.64
9855;BME280;4966;48.112;9.282;2022-12-20T10:38:13;95045.72;;;4.54;78.74
9855;BME280;4966;48.112;9.282;2022-12-20T10:40:47;95033.94;;;4.50;78.70
9855;BME280;4966;48.112;9.282;2022-12-20T10:43:17;95042.94;;;4.40;78.89
9855;BME280;4966;48.112;9.282;2022-12-20T10:45:56;95031.44;;;4.34;78.87
9855;BME280;4966;48.112;9.282;2022-12-20T10:48:28;95029.97;;;4.23;79.73
9855;BME280;4966;48.112;9.282;2022-12-20T10:51:00;95025.63;;;4.27;79.67
9855;BME280;4966;48.112;9.282;2022-12-20T10:53:26;95021.91;;;4.42;79.27
9855;BME280;4966;48.112;9.282;2022-12-20T10:55:53;95011.72;;;4.39;79.84
9855;BME280;4966;48.112;9.282;2022-12-20T10:58:34;95003.56;;;4.63;78.17
9855;BME280;4966;48.112;9.282;2022-12-20T11:01:15;95009.69;;;4.50;79.16
9855;BME280;4966;48.112;9.282;2022-12-20T11:03:53;95012.38;;;4.50;79.86
9855;BME280;4966;48.112;9.282;2022-12-20T11:06:22;95005.03;;;4.55;79.46
9855;BME280;4966;48.112;9.282;2022-12-20T11:08:48;94991.06;;;4.72;79.31
9855;BME280;4966;48.112;9.282;2022-12-20T11:13:40;94986.84;;;4.99;78.60
9855;BME280;4966;48.112;9.282;2022-12-20T11:16:21;94981.56;;;4.94;78.51
9855;BME280;4966;48.112;9.282;2022-12-20T11:35:13;94948.06;;;5.27;77.60
9855;BME280;4966;48.112;9.282;2022-12-20T11:40:25;94946.06;;;5.33;77.54
9855;BME280;4966;48.112;9.282;2022-12-20T11:43:13;94938.00;;;5.47;76.75
9855;BME280;4966;48.112;9.282;2022-12-20T11:48:38;94936.78;;;5.81;75.85
9855;BME280;4966;48.112;9.282;2022-12-20T11:53:49;94928.97;;;5.79;75.36
9855;BME280;4966;48.112;9.282;2022-12-20T11:56:43;94931.91;;;5.83;75.71
9855;BME280;4966;48.112;9.282;2022-12-20T11:59:18;94928.19;;;6.06;74.64
9855;BME280;4966;48.112;9.282;2022-12-20T12:01:54;94914.25;;;6.13;74.76
9855;BME280;4966;48.112;9.282;2022-12-20T12:04:25;94907.09;;;6.45;73.97
9855;BME280;4966;48.112;9.282;2022-12-20T12:06:58;94899.91;;;6.63;73.66
9855;BME280;4966;48.112;9.282;2022-12-20T12:12:18;94889.78;;;6.68;72.63
9855;BME280;4966;48.112;9.282;2022-12-20T12:14:58;94880.84;;;6.45;73.42
9855;BME280;4966;48.112;9.282;2022-12-20T12:23:06;94899.06;;;6.17;74.39
9855;BME280;4966;48.112;9.282;2022-12-20T12:25:34;94903.00;;;5.97;75.06
9855;BME280;4966;48.112;9.282;2022-12-20T12:28:00;94903.88;;;5.92;75.26
9855;BME280;4966;48.112;9.282;2022-12-20T12:30:28;94895.91;;;6.01;74.94
9855;BME280;4966;48.112;9.282;2022-12-20T12:33:04;94893.63;;;5.94;75.26
9855;BME280;4966;48.112;9.282;2022-12-20T12:43:52;94881.91;;;5.71;76.33
9855;BME280;4966;48.112;9.282;2022-12-20T12:46:24;94895.41;;;5.58;77.51
9855;BME280;4966;48.112;9.282;2022-12-20T12:51:24;94871.09;;;5.85;77.08
9855;BME280;4966;48.112;9.282;2022-12-20T12:53:53;94874.97;;;5.93;77.00
9855;BME280;4966;48.112;9.282;2022-12-20T13:01:48;94862.81;;;5.95;75.66
9855;BME280;4966;48.112;9.282;2022-12-20T13:06:54;94866.59;;;6.53;75.46
9855;BME280;4966;48.112;9.282;2022-12-20T13:11:56;94876.94;;;7.36;72.90
9855;BME280;4966;48.112;9.282;2022-12-20T13:16:54;94870.09;;;7.39;71.45
9855;BME280;4966;48.112;9.282;2022-12-20T13:19:40;94878.34;;;7.34;71.65
9855;BME280;4966;48.112;9.282;2022-12-20T13:22:20;94886.28;;;6.99;72.12
9855;BME280;4966;48.112;9.282;2022-12-20T13:27:23;94876.31;;;6.54;72.93
9855;BME280;4966;48.112;9.282;2022-12-20T13:40:23;94855.31;;;5.79;76.84
9855;BME280;4966;48.112;9.282;2022-12-20T13:42:52;94859.50;;;5.85;76.94
9855;BME280;4966;48.112;9.282;2022-12-20T13:45:19;94851.81;;;5.78;77.67
9855;BME280;4966;48.112;9.282;2022-12-20T13:47:48;94846.69;;;5.90;78.00
9855;BME280;4966;48.112;9.282;2022-12-20T13:52:47;94838.38;;;6.37;76.73
9855;BME280;4966;48.112;9.282;2022-12-20T13:55:25;94839.47;;;6.58;76.08
9855;BME280;4966;48.112;9.282;2022-12-20T13:57:51;94837.28;;;6.69;75.92
9855;BME280;4966;48.112;9.282;2022-12-20T14:00:22;94828.75;;;6.76;74.89
9855;BME280;4966;48.112;9.282;2022-12-20T14:02:50;94829.13;;;6.92;75.21
9855;BME280;4966;48.112;9.282;2022-12-20T14:05:24;94826.84;;;7.08;73.68
9855;BME280;4966;48.112;9.282;2022-12-20T14:08:21;94822.34;;;7.43;73.72
9855;BME280;4966;48.112;9.282;2022-12-20T14:10:47;94817.50;;;8.06;72.27
9855;BME280;4966;48.112;9.282;2022-12-20T14:13:24;94808.72;;;8.09;70.67
9855;BME280;4966;48.112;9.282;2022-12-20T14:15:51;94798.69;;;8.27;70.05
9855;BME280;4966;48.112;9.282;2022-12-20T14:18:19;94811.75;;;8.16;70.04
9855;BME280;4966;48.112;9.282;2022-12-20T14:20:54;94816.72;;;8.05;70.13
9855;BME280;4966;48.112;9.282;2022-12-20T14:23:25;94820.84;;;7.94;70.75
9855;BME280;4966;48.112;9.282;2022-12-20T14:25:56;94812.25;;;7.83;70.34
9855;BME280;4966;48.112;9.282;2022-12-20T14:30:50;94807.53;;;7.49;71.14
9855;BME280;4966;48.112;9.282;2022-12-20T14:33:37;94806.44;;;7.50;72.40
9855;BME280;4966;48.112;9.282;2022-12-20T14:38:45;94809.72;;;7.30;71.17
9855;BME280;4966;48.112;9.282;2022-12-20T14:41:34;94805.97;;;7.08;71.57
9855;BME280;4966;48.112;9.282;2022-12-20T14:44:22;94811.53;;;6.94;71.90
9855;BME280;4966;48.112;9.282;2022-12-20T14:46:52;94820.84;;;6.88;72.16
9855;BME280;4966;48.112;9.282;2022-12-20T14:49:27;94816.66;;;6.73;72.39
9855;BME280;4966;48.112;9.282;2022-12-20T14:52:15;94815.81;;;6.42;72.95
9855;BME280;4966;48.112;9.282;2022-12-20T14:54:44;94811.66;;;6.35;73.32
9855;BME280;4966;48.112;9.282;2022-12-20T14:57:21;94829.09;;;5.79;76.62
9855;BME280;4966;48.112;9.282;2022-12-20T15:02:36;94834.19;;;5.30;77.38
9855;BME280;4966;48.112;9.282;2022-12-20T15:05:07;94825.78;;;5.04;78.17
9855;BME280;4966;48.112;9.282;2022-12-20T15:07:33;94818.06;;;4.70;81.23
9855;BME280;4966;48.112;9.282;2022-12-20T15:09:58;94825.03;;;4.71;81.16
9855;BME280;4966;48.112;9.282;2022-12-20T15:12:24;94824.34;;;4.65;80.65
9855;BME280;4966;48.112;9.282;2022-12-20T15:14:49;94830.22;;;4.54;81.34
9855;BME280;4966;48.112;9.282;2022-12-20T15:17:15;94815.94;;;4.53;81.17
9855;BME280;4966;48.112;9.282;2022-12-20T15:19:41;94807.13;;;4.47;81.06
9855;BME280;4966;48.112;9.282;2022-12-20T15:22:13;94820.53;;;4.20;81.67
9855;BME280;4966;48.112;9.282;2022-12-20T15:24:39;94826.09;;;4.10;81.98
9855;BME280;4966;48.112;9.282;2022-12-20T15:27:05;94824.13;;;3.96;82.18